createdAt,value
2022-12-13T00:00:22.917Z,98047.91
2022-12-13T00:05:24.747Z,98043.73
2022-12-13T00:10:26.864Z,98051.16
2022-12-13T00:15:28.588Z,98053.39
2022-12-13T00:20:30.406Z,98059.97
2022-12-13T00:25:33.725Z,98059.23
2022-12-13T00:30:35.905Z,98062.21
2022-12-13T00:35:42.131Z,98068.60
2022-12-13T00:40:43.964Z,98076.42
2022-12-13T00:45:45.708Z,98082.35
2022-12-13T00:50:47.482Z,98087.06
2022-12-13T00:55:49.251Z,98089.95
2022-12-13T01:00:50.949Z,98089.27
2022-12-13T01:11:16.207Z,98100.37
2022-12-13T01:16:18.831Z,98098.56
2022-12-13T01:21:22.307Z,98097.31
2022-12-13T01:26:24.183Z,98099.32
2022-12-13T01:31:26.636Z,98099.06
2022-12-13T01:36:28.590Z,98098.05
2022-12-13T01:41:32.443Z,98097.45
2022-12-13T01:46:36.094Z,98091.80
2022-12-13T01:51:55.975Z,98093.58
2022-12-13T01:57:00.847Z,98097.51
2022-12-13T02:02:03.381Z,98095.91
2022-12-13T02:07:06.267Z,98096.67
2022-12-13T02:12:08.580Z,98098.52
2022-12-13T02:17:26.760Z,98102.36
2022-12-13T02:22:56.566Z,98102.41
2022-12-13T02:28:39.531Z,98103.77
2022-12-13T02:34:07.541Z,98104.28
2022-12-13T02:39:29.726Z,98096.66
2022-12-13T02:44:51.314Z,98096.33
2022-12-13T02:49:57.443Z,98092.62
2022-12-13T02:54:59.500Z,98097.57
2022-12-13T03:00:08.432Z,98100.10
2022-12-13T03:05:42.439Z,98105.94
2022-12-13T03:11:08.726Z,98103.30
2022-12-13T03:16:24.271Z,98112.59
2022-12-13T03:21:26.505Z,98114.63
2022-12-13T03:26:28.170Z,98116.92
2022-12-13T03:31:29.892Z,98114.98
2022-12-13T03:36:32.124Z,98114.60
2022-12-13T03:41:33.954Z,98118.79
2022-12-13T03:46:35.818Z,98124.42
2022-12-13T03:51:37.575Z,98125.71
2022-12-13T03:56:39.233Z,98124.10
2022-12-13T04:01:41.096Z,98124.48
2022-12-13T04:06:42.898Z,98126.54
2022-12-13T04:12:03.172Z,98125.39
2022-12-13T04:17:04.723Z,98127.85
2022-12-13T04:22:06.390Z,98130.08
2022-12-13T04:27:08.166Z,98131.31
2022-12-13T04:32:26.463Z,98130.68
2022-12-13T04:37:30.345Z,98132.13
2022-12-13T04:42:32.075Z,98133.66
2022-12-13T04:47:33.740Z,98130.14
2022-12-13T04:52:35.409Z,98130.49
2022-12-13T04:57:37.095Z,98129.22
2022-12-13T05:02:41.582Z,98136.95
2022-12-13T05:07:45.129Z,98135.41
2022-12-13T05:12:46.754Z,98137.21
2022-12-13T05:17:48.456Z,98143.86
2022-12-13T05:22:50.128Z,98143.23
2022-12-13T05:27:57.035Z,98140.56
2022-12-13T05:32:58.950Z,98141.32
2022-12-13T05:38:00.919Z,98141.08
2022-12-13T05:43:02.556Z,98144.23
2022-12-13T05:48:04.362Z,98142.86
2022-12-13T05:53:07.187Z,98142.80
2022-12-13T05:58:13.255Z,98137.92
2022-12-13T06:03:15.427Z,98145.92
2022-12-13T06:08:24.757Z,98148.22
2022-12-13T06:13:32.186Z,98153.14
2022-12-13T06:18:35.462Z,98159.22
2022-12-13T06:23:37.151Z,98160.84
2022-12-13T06:28:38.858Z,98163.19
2022-12-13T06:33:40.554Z,98170.52
2022-12-13T06:38:43.170Z,98175.42
2022-12-13T06:43:47.670Z,98175.48
2022-12-13T06:48:49.945Z,98180.15
2022-12-13T06:53:52.537Z,98183.58
2022-12-13T06:58:54.263Z,98182.73
2022-12-13T07:04:03.798Z,98187.88
2022-12-13T07:09:05.436Z,98191.38
2022-12-13T07:14:07.699Z,98198.73
2022-12-13T07:19:22.623Z,98198.16
2022-12-13T07:24:26.154Z,98205.40
2022-12-13T07:29:27.821Z,98209.27
2022-12-13T07:34:30.508Z,98219.39
2022-12-13T07:39:32.443Z,98222.06
2022-12-13T07:44:34.080Z,98223.96
2022-12-13T07:49:35.833Z,98225.46
2022-12-13T07:54:37.538Z,98228.09
2022-12-13T07:59:39.179Z,98227.30
2022-12-13T08:04:42.981Z,98229.49
2022-12-13T08:09:48.113Z,98231.17
2022-12-13T08:14:55.259Z,98236.16
2022-12-13T08:19:56.897Z,98237.59
2022-12-13T08:24:58.597Z,98236.84
2022-12-13T08:30:00.330Z,98238.39
2022-12-13T08:35:01.997Z,98240.88
2022-12-13T08:40:06.244Z,98248.05
2022-12-13T08:45:08.636Z,98250.04
2022-12-13T08:50:10.226Z,98253.55
2022-12-13T08:55:13.838Z,98255.77
2022-12-13T09:00:18.308Z,98254.36
2022-12-13T09:05:33.658Z,98254.02
2022-12-13T09:10:38.638Z,98258.17
2022-12-13T09:15:46.157Z,98261.30
2022-12-13T09:20:48.311Z,98263.65
2022-12-13T09:26:05.705Z,98264.23
2022-12-13T09:31:09.773Z,98260.30
2022-12-13T09:36:18.016Z,98259.23
2022-12-13T09:41:29.736Z,98263.30
2022-12-13T09:46:44.926Z,98265.55
2022-12-13T09:52:10.146Z,98262.34
2022-12-13T09:57:34.158Z,98266.42
2022-12-13T10:02:44.378Z,98268.45
2022-12-13T10:07:46.327Z,98269.95
2022-12-13T10:12:55.722Z,98267.37
2022-12-13T10:17:59.680Z,98262.80
2022-12-13T10:23:31.514Z,98254.66
2022-12-13T10:28:31.496Z,98253.44
2022-12-13T10:33:41.646Z,98254.17
2022-12-13T10:38:45.945Z,98250.29
2022-12-13T10:44:08.675Z,98249.89
2022-12-13T10:49:19.823Z,98243.75
2022-12-13T10:54:38.705Z,98240.87
2022-12-13T10:59:50.896Z,98242.98
2022-12-13T11:04:52.521Z,98240.42
2022-12-13T11:09:54.256Z,98235.16
2022-12-13T11:15:06.187Z,98230.79
2022-12-13T11:20:19.579Z,98232.34
2022-12-13T11:25:28.604Z,98225.09
2022-12-13T11:31:01.538Z,98215.24
2022-12-13T11:36:32.841Z,98211.97
2022-12-13T11:41:40.389Z,98217.04
2022-12-13T11:46:46.395Z,98213.54
2022-12-13T11:51:58.092Z,98220.99
2022-12-13T11:57:07.992Z,98223.67
2022-12-13T12:02:32.331Z,98220.56
2022-12-13T12:07:58.421Z,98222.35
2022-12-13T12:13:23.445Z,98220.33
2022-12-13T12:18:25.498Z,98223.39
2022-12-13T12:23:58.948Z,98215.52
2022-12-13T12:29:28.774Z,98223.68
2022-12-13T12:35:04.823Z,98222.52
2022-12-13T12:40:18.869Z,98217.20
2022-12-13T12:46:00.179Z,98209.73
2022-12-13T12:51:10.840Z,98207.16
2022-12-13T12:56:19.703Z,98210.13
2022-12-13T13:01:43.704Z,98212.66
2022-12-13T13:06:50.060Z,98215.31
2022-12-13T13:11:57.380Z,98213.95
2022-12-13T13:17:20.617Z,98220.95
2022-12-13T13:22:32.409Z,98226.02
2022-12-13T13:27:42.737Z,98228.55
2022-12-13T13:32:44.408Z,98236.38
2022-12-13T13:37:48.678Z,98235.57
2022-12-13T13:43:05.571Z,98240.56
2022-12-13T13:48:37.028Z,98237.57
2022-12-13T13:54:03.921Z,98241.29
2022-12-13T13:59:38.106Z,98247.25
2022-12-13T14:05:18.398Z,98258.11
2022-12-13T14:10:32.290Z,98257.31
2022-12-13T14:16:12.055Z,98266.31
2022-12-13T14:21:26.586Z,98272.70
2022-12-13T14:27:16.219Z,98273.42
2022-12-13T14:32:31.476Z,98270.43
2022-12-13T14:37:38.489Z,98275.27
2022-12-13T14:42:41.723Z,98276.65
2022-12-13T14:47:50.359Z,98277.09
2022-12-13T14:52:53.297Z,98275.00
2022-12-13T14:57:57.532Z,98280.89
2022-12-13T15:03:01.446Z,98286.24
2022-12-13T15:08:11.003Z,98287.62
2022-12-13T15:13:22.955Z,98287.30
2022-12-13T15:18:25.527Z,98290.58
2022-12-13T15:23:49.668Z,98292.80
2022-12-13T15:29:14.730Z,98297.34
2022-12-13T15:34:37.605Z,98302.08
2022-12-13T15:39:48.097Z,98300.00
2022-12-13T15:44:54.943Z,98297.94
2022-12-13T15:49:59.361Z,98290.90
2022-12-13T15:55:06.774Z,98293.61
2022-12-13T16:00:30.842Z,98294.91
2022-12-13T16:05:37.215Z,98296.05
2022-12-13T16:10:39.015Z,98295.36
2022-12-13T16:16:26.968Z,98295.21
2022-12-13T16:21:30.191Z,98288.59
2022-12-13T16:26:34.132Z,98289.20
2022-12-13T16:31:36.243Z,98289.37
2022-12-13T16:36:38.662Z,98289.73
2022-12-13T16:41:45.837Z,98293.98
2022-12-13T16:47:16.835Z,98294.95
2022-12-13T16:52:09.287Z,98294.50
2022-12-13T16:57:11.067Z,98296.02
2022-12-13T17:02:17.433Z,98286.05
2022-12-13T17:07:19.260Z,98300.65
2022-12-13T17:12:21.108Z,98309.10
2022-12-13T17:17:22.954Z,98303.95
2022-12-13T17:22:24.720Z,98309.97
2022-12-13T17:27:26.667Z,98309.94
2022-12-13T17:32:29.572Z,98317.03
2022-12-13T17:37:32.304Z,98322.77
2022-12-13T17:42:34.983Z,98329.72
2022-12-13T17:47:38.729Z,98333.95
2022-12-13T17:52:40.648Z,98339.90
2022-12-13T17:57:42.324Z,98338.73
2022-12-13T18:02:55.328Z,98340.07
2022-12-13T18:07:58.126Z,98342.21
2022-12-13T18:13:00.475Z,98344.48
2022-12-13T18:18:12.488Z,98345.94
2022-12-13T18:23:15.963Z,98342.13
2022-12-13T18:28:18.554Z,98340.52
2022-12-13T18:33:20.576Z,98339.39
2022-12-13T18:38:24.389Z,98340.48
2022-12-13T18:43:26.629Z,98342.67
2022-12-13T18:48:32.313Z,98343.89
2022-12-13T18:53:35.402Z,98338.21
2022-12-13T18:58:39.783Z,98327.70
2022-12-13T19:03:47.470Z,98328.84
2022-12-13T19:08:51.757Z,98324.37
2022-12-13T19:13:54.013Z,98325.77
2022-12-13T19:18:57.481Z,98328.50
2022-12-13T19:24:01.312Z,98328.67
2022-12-13T19:29:03.742Z,98328.84
2022-12-13T19:34:05.791Z,98334.64
2022-12-13T19:39:07.807Z,98338.61
2022-12-13T19:44:10.113Z,98339.08
2022-12-13T19:49:13.813Z,98343.92
2022-12-13T19:54:16.070Z,98343.48
2022-12-13T19:59:18.121Z,98342.07
2022-12-13T20:04:20.535Z,98346.56
2022-12-13T20:09:22.630Z,98348.96
2022-12-13T20:14:25.601Z,98353.47
2022-12-13T20:19:28.027Z,98352.98
2022-12-13T20:24:30.012Z,98364.67
2022-12-13T20:29:32.573Z,98367.23
2022-12-13T20:34:35.012Z,98362.55
2022-12-13T20:39:37.048Z,98357.13
2022-12-13T20:44:39.066Z,98353.20
2022-12-13T20:49:41.076Z,98353.52
2022-12-13T20:54:43.176Z,98350.13
2022-12-13T20:59:44.945Z,98339.98
2022-12-13T21:04:46.711Z,98332.89
2022-12-13T21:09:48.471Z,98326.98
2022-12-13T21:14:50.246Z,98329.57
2022-12-13T21:19:52.115Z,98335.77
2022-12-13T21:24:55.389Z,98337.37
2022-12-13T21:29:57.186Z,98336.24
2022-12-13T21:34:59.005Z,98333.31
2022-12-13T21:40:00.880Z,98329.52
2022-12-13T21:45:02.795Z,98330.20
2022-12-13T21:50:04.944Z,98332.14
2022-12-13T21:55:37.870Z,98331.45
2022-12-13T22:00:30.269Z,98326.99
2022-12-13T22:05:32.134Z,98326.86
2022-12-13T22:10:33.922Z,98328.55
2022-12-13T22:15:35.725Z,98326.81
2022-12-13T22:20:37.669Z,98328.34
2022-12-13T22:25:39.522Z,98327.70
2022-12-13T22:30:41.634Z,98332.74
2022-12-13T22:35:43.430Z,98331.61
2022-12-13T22:40:45.263Z,98327.71
2022-12-13T22:45:47.105Z,98328.60
2022-12-13T22:50:48.938Z,98324.02
2022-12-13T22:55:51.236Z,98311.33
2022-12-13T23:00:53.136Z,98311.39
2022-12-13T23:05:54.949Z,98308.31
2022-12-13T23:11:18.236Z,98293.24
2022-12-13T23:16:21.982Z,98288.27
2022-12-13T23:21:25.159Z,98279.66
2022-12-13T23:26:29.812Z,98277.80
2022-12-13T23:31:36.244Z,98272.53
2022-12-13T23:36:38.179Z,98266.93
2022-12-13T23:41:40.071Z,98257.64
2022-12-13T23:46:42.125Z,98254.48
2022-12-13T23:51:50.633Z,98251.69
2022-12-13T23:56:52.468Z,98252.41
